createdAt,value
2023-03-30T00:00:23.225Z,80.69
2023-03-30T00:02:53.955Z,80.72
2023-03-30T00:05:23.935Z,80.68
2023-03-30T00:07:51.066Z,80.50
2023-03-30T00:10:19.344Z,80.61
2023-03-30T00:12:47.992Z,80.51
2023-03-30T00:15:17.670Z,80.32
2023-03-30T00:17:44.986Z,80.13
2023-03-30T00:20:17.252Z,79.94
2023-03-30T00:22:48.582Z,80.04
2023-03-30T00:25:17.436Z,79.77
2023-03-30T00:27:44.616Z,79.64
2023-03-30T00:30:15.380Z,79.54
2023-03-30T00:33:00.706Z,79.39
2023-03-30T00:35:30.749Z,79.13
2023-03-30T00:38:04.277Z,79.11
2023-03-30T00:40:34.848Z,79.13
2023-03-30T00:43:07.803Z,79.38
2023-03-30T00:45:36.742Z,79.38
2023-03-30T00:48:15.852Z,79.09
2023-03-30T00:50:49.953Z,79.27
2023-03-30T00:53:47.713Z,79.18
2023-03-30T00:56:23.002Z,79.20
2023-03-30T00:58:50.611Z,79.51
2023-03-30T01:01:25.723Z,79.51
2023-03-30T01:03:52.990Z,79.81
2023-03-30T01:06:30.187Z,79.65
2023-03-30T01:08:59.866Z,79.86
2023-03-30T01:11:27.457Z,79.37
2023-03-30T01:14:02.065Z,79.40
2023-03-30T01:17:01.575Z,79.14
2023-03-30T01:19:49.224Z,79.05
2023-03-30T01:22:26.669Z,79.20
2023-03-30T01:24:58.641Z,79.10
2023-03-30T01:27:48.458Z,78.98
2023-03-30T01:30:37.590Z,78.59
2023-03-30T01:33:16.456Z,78.23
2023-03-30T01:35:46.290Z,77.81
2023-03-30T01:38:48.734Z,77.62
2023-03-30T01:41:37.536Z,77.43
2023-03-30T01:44:40.852Z,77.16
2023-03-30T01:47:22.606Z,77.06
2023-03-30T01:50:09.048Z,76.99
2023-03-30T01:52:54.483Z,76.76
2023-03-30T01:55:28.387Z,76.71
2023-03-30T01:58:03.217Z,76.75
2023-03-30T02:00:31.049Z,76.91
2023-03-30T02:03:06.755Z,76.89
2023-03-30T02:05:34.548Z,77.23
2023-03-30T02:08:07.528Z,77.58
2023-03-30T02:10:37.248Z,77.30
2023-03-30T02:13:05.373Z,77.42
2023-03-30T02:15:41.797Z,77.48
2023-03-30T02:18:09.713Z,77.78
2023-03-30T02:20:36.849Z,77.64
2023-03-30T02:23:09.290Z,77.59
2023-03-30T02:25:38.678Z,77.55
2023-03-30T02:28:07.801Z,77.68
2023-03-30T02:30:41.146Z,77.29
2023-03-30T02:33:13.759Z,77.35
2023-03-30T02:36:08.068Z,77.02
2023-03-30T02:38:47.577Z,76.95
2023-03-30T02:41:28.936Z,76.65
2023-03-30T02:44:14.616Z,76.93
2023-03-30T02:47:07.212Z,76.85
2023-03-30T02:50:06.143Z,76.65
2023-03-30T02:52:52.607Z,76.86
2023-03-30T02:55:22.390Z,76.76
2023-03-30T02:57:58.333Z,76.29
2023-03-30T03:00:42.062Z,76.46
2023-03-30T03:03:33.028Z,76.39
2023-03-30T03:06:02.858Z,76.25
2023-03-30T03:08:34.548Z,76.27
2023-03-30T03:11:07.478Z,76.44
2023-03-30T03:13:40.681Z,76.51
2023-03-30T03:16:12.215Z,76.45
2023-03-30T03:18:42.645Z,76.34
2023-03-30T03:21:16.180Z,76.42
2023-03-30T03:23:48.396Z,76.13
2023-03-30T03:26:15.378Z,76.40
2023-03-30T03:28:42.920Z,76.24
2023-03-30T03:31:13.432Z,76.58
2023-03-30T03:33:40.159Z,76.71
2023-03-30T03:36:11.106Z,76.66
2023-03-30T03:38:38.168Z,76.67
2023-03-30T03:41:05.161Z,76.64
2023-03-30T03:43:32.212Z,76.88
2023-03-30T03:45:59.007Z,77.24
2023-03-30T03:48:25.815Z,76.96
2023-03-30T03:50:55.038Z,77.04
2023-03-30T03:53:22.730Z,76.85
2023-03-30T03:55:49.504Z,77.10
2023-03-30T03:58:16.924Z,76.85
2023-03-30T04:00:44.311Z,76.90
2023-03-30T04:03:12.333Z,76.93
2023-03-30T04:05:39.624Z,77.03
2023-03-30T04:08:09.186Z,76.89
2023-03-30T04:10:38.303Z,76.94
2023-03-30T04:13:05.087Z,76.73
2023-03-30T04:15:34.060Z,76.40
2023-03-30T04:18:05.416Z,76.45
2023-03-30T04:20:33.243Z,76.55
2023-03-30T04:23:01.941Z,76.84
2023-03-30T04:25:29.269Z,77.01
2023-03-30T04:27:57.000Z,77.92
2023-03-30T04:30:26.749Z,78.47
2023-03-30T04:33:03.813Z,78.94
2023-03-30T04:35:36.111Z,79.21
2023-03-30T04:38:02.969Z,79.29
2023-03-30T04:40:29.797Z,79.43
2023-03-30T04:43:02.233Z,79.56
2023-03-30T04:45:30.504Z,79.68
2023-03-30T04:48:00.361Z,79.75
2023-03-30T04:50:27.108Z,79.97
2023-03-30T04:52:53.890Z,80.10
2023-03-30T04:55:20.471Z,80.54
2023-03-30T04:57:47.125Z,80.65
2023-03-30T05:00:14.508Z,81.04
2023-03-30T05:02:41.398Z,81.19
2023-03-30T05:05:08.669Z,81.63
2023-03-30T05:07:35.523Z,81.82
2023-03-30T05:10:02.109Z,82.32
2023-03-30T05:12:28.743Z,82.34
2023-03-30T05:14:55.346Z,82.62
2023-03-30T05:17:21.966Z,82.77
2023-03-30T05:19:48.701Z,82.77
2023-03-30T05:22:16.419Z,83.35
2023-03-30T05:24:43.067Z,83.24
2023-03-30T05:27:09.673Z,83.19
2023-03-30T05:29:36.400Z,83.33
2023-03-30T05:32:03.254Z,83.19
2023-03-30T05:34:30.134Z,82.99
2023-03-30T05:36:58.916Z,83.05
2023-03-30T05:39:25.592Z,83.17
2023-03-30T05:41:52.508Z,83.14
2023-03-30T05:44:21.869Z,83.34
2023-03-30T05:46:49.182Z,83.50
2023-03-30T05:49:16.068Z,83.85
2023-03-30T05:51:44.924Z,83.67
2023-03-30T05:54:14.721Z,83.73
2023-03-30T05:56:45.961Z,83.92
2023-03-30T05:59:13.128Z,83.99
2023-03-30T06:01:40.205Z,84.13
2023-03-30T06:04:08.680Z,84.05
2023-03-30T06:06:37.840Z,83.90
2023-03-30T06:09:04.902Z,84.44
2023-03-30T06:11:36.356Z,84.43
2023-03-30T06:14:03.205Z,84.08
2023-03-30T06:16:29.953Z,83.91
2023-03-30T06:18:59.352Z,83.99
2023-03-30T06:21:25.912Z,84.13
2023-03-30T06:23:52.584Z,84.18
2023-03-30T06:26:19.850Z,84.30
2023-03-30T06:28:48.946Z,84.33
2023-03-30T06:31:18.039Z,84.56
2023-03-30T06:33:45.100Z,83.93
2023-03-30T06:36:14.741Z,82.65
2023-03-30T06:38:43.663Z,81.61
2023-03-30T06:41:11.981Z,81.34
2023-03-30T06:43:39.562Z,81.63
2023-03-30T06:46:07.355Z,81.92
2023-03-30T06:48:34.470Z,81.52
2023-03-30T06:51:02.490Z,82.72
2023-03-30T06:53:30.152Z,82.00
2023-03-30T06:56:01.452Z,81.78
2023-03-30T06:58:28.487Z,80.98
2023-03-30T07:00:55.677Z,79.90
2023-03-30T07:03:30.050Z,79.79
2023-03-30T07:05:59.034Z,80.05
2023-03-30T07:08:25.723Z,79.32
2023-03-30T07:10:54.916Z,79.15
2023-03-30T07:13:23.767Z,78.14
2023-03-30T07:15:52.339Z,78.02
2023-03-30T07:18:19.331Z,77.11
2023-03-30T07:20:48.714Z,77.36
2023-03-30T07:23:19.640Z,77.66
2023-03-30T07:25:47.059Z,77.03
2023-03-30T07:28:16.356Z,76.73
2023-03-30T07:30:43.449Z,75.43
2023-03-30T07:33:10.384Z,74.13
2023-03-30T07:35:43.160Z,74.54
2023-03-30T07:38:13.207Z,74.79
2023-03-30T07:40:42.488Z,75.65
2023-03-30T07:43:09.089Z,76.08
2023-03-30T07:45:35.735Z,76.51
2023-03-30T07:48:05.119Z,76.68
2023-03-30T07:50:31.770Z,76.76
2023-03-30T07:52:58.327Z,76.63
2023-03-30T07:55:25.049Z,76.48
2023-03-30T07:57:52.548Z,76.34
2023-03-30T08:00:23.815Z,76.10
2023-03-30T08:02:53.352Z,75.88
2023-03-30T08:05:20.184Z,75.06
2023-03-30T08:07:47.040Z,74.56
2023-03-30T08:10:14.433Z,74.16
2023-03-30T08:12:43.450Z,75.02
2023-03-30T08:15:12.940Z,75.48
2023-03-30T08:17:39.606Z,75.54
2023-03-30T08:20:11.466Z,75.53
2023-03-30T08:22:38.137Z,75.24
2023-03-30T08:25:07.972Z,74.79
2023-03-30T08:27:34.622Z,73.71
2023-03-30T08:30:02.128Z,73.39
2023-03-30T08:32:28.823Z,73.84
2023-03-30T08:34:55.657Z,74.15
2023-03-30T08:37:22.683Z,73.96
2023-03-30T08:39:49.336Z,74.30
2023-03-30T08:42:46.801Z,73.49
2023-03-30T08:45:16.409Z,70.25
2023-03-30T08:47:49.043Z,69.04
2023-03-30T08:50:31.600Z,67.55
2023-03-30T08:52:58.830Z,65.34
2023-03-30T08:55:49.600Z,61.51
2023-03-30T08:58:16.097Z,62.87
2023-03-30T09:00:54.161Z,63.84
2023-03-30T09:03:53.272Z,63.02
2023-03-30T09:06:31.845Z,64.47
2023-03-30T09:09:01.495Z,66.26
2023-03-30T09:11:35.122Z,66.02
2023-03-30T09:14:12.762Z,62.73
2023-03-30T09:16:52.614Z,61.75
2023-03-30T09:19:28.512Z,61.21
2023-03-30T09:21:57.690Z,61.58
2023-03-30T09:24:27.766Z,62.05
2023-03-30T09:27:07.563Z,60.99
2023-03-30T09:29:46.864Z,61.13
2023-03-30T09:32:42.257Z,62.83
2023-03-30T09:35:19.214Z,61.91
2023-03-30T09:37:48.309Z,61.78
2023-03-30T09:40:42.041Z,62.67
2023-03-30T09:43:22.142Z,62.79
2023-03-30T09:45:48.908Z,62.77
2023-03-30T09:48:16.941Z,60.85
2023-03-30T09:50:45.925Z,61.09
2023-03-30T09:53:26.939Z,60.63
2023-03-30T09:56:21.310Z,60.80
2023-03-30T09:58:50.630Z,60.81
2023-03-30T10:01:20.606Z,61.09
2023-03-30T10:04:38.716Z,61.38
2023-03-30T10:06:58.714Z,61.67
2023-03-30T10:09:30.059Z,61.95
2023-03-30T10:11:58.468Z,62.09
2023-03-30T10:14:35.776Z,62.67
2023-03-30T10:17:04.460Z,62.94
2023-03-30T10:19:37.155Z,61.61
2023-03-30T10:22:17.436Z,61.89
2023-03-30T10:24:53.223Z,62.04
2023-03-30T10:27:25.590Z,61.27
2023-03-30T10:29:55.545Z,61.30
2023-03-30T10:32:31.693Z,61.19
2023-03-30T10:35:02.088Z,60.96
2023-03-30T10:37:38.647Z,61.31
2023-03-30T10:40:37.274Z,61.86
2023-03-30T10:43:06.903Z,61.58
2023-03-30T10:45:48.184Z,61.41
2023-03-30T10:48:57.293Z,61.21
2023-03-30T10:51:33.052Z,61.55
2023-03-30T10:54:27.264Z,61.72
2023-03-30T10:57:09.284Z,59.96
2023-03-30T10:59:38.888Z,60.86
2023-03-30T11:02:51.601Z,61.82
2023-03-30T11:05:32.589Z,62.07
2023-03-30T11:08:32.435Z,62.00
2023-03-30T11:11:00.519Z,61.20
2023-03-30T11:13:33.091Z,60.68
2023-03-30T11:16:07.993Z,61.05
2023-03-30T11:18:38.688Z,61.29
2023-03-30T11:21:08.390Z,60.90
2023-03-30T11:23:50.262Z,61.02
2023-03-30T11:26:23.725Z,60.71
2023-03-30T11:28:59.684Z,60.98
2023-03-30T11:31:35.430Z,60.59
2023-03-30T11:34:34.460Z,59.13
2023-03-30T11:37:12.830Z,58.33
2023-03-30T11:43:05.930Z,58.54
2023-03-30T11:46:25.506Z,58.92
2023-03-30T11:49:13.553Z,58.63
2023-03-30T11:52:11.103Z,57.94
2023-03-30T11:55:42.556Z,58.30
2023-03-30T11:58:17.962Z,58.16
2023-03-30T12:00:53.576Z,59.31
2023-03-30T12:03:35.633Z,60.77
2023-03-30T12:06:11.398Z,61.43
2023-03-30T12:09:02.950Z,61.57
2023-03-30T12:11:50.863Z,62.56
2023-03-30T12:14:23.407Z,63.27
2023-03-30T12:16:55.630Z,62.80
2023-03-30T12:19:30.128Z,62.43
2023-03-30T12:22:08.697Z,62.48
2023-03-30T12:25:06.207Z,62.73
2023-03-30T12:27:37.420Z,62.95
2023-03-30T12:30:27.012Z,63.52
2023-03-30T12:33:00.304Z,63.21
2023-03-30T12:35:51.036Z,62.94
2023-03-30T12:38:22.019Z,63.13
2023-03-30T12:41:20.726Z,62.92
2023-03-30T12:43:59.671Z,62.86
2023-03-30T12:47:18.406Z,63.04
2023-03-30T12:49:57.508Z,62.89
2023-03-30T12:52:42.775Z,62.41
2023-03-30T12:55:27.415Z,62.63
2023-03-30T12:57:53.931Z,62.35
2023-03-30T13:00:29.902Z,62.48
2023-03-30T13:03:18.426Z,62.39
2023-03-30T13:05:49.588Z,61.61
2023-03-30T13:08:21.871Z,60.77
2023-03-30T13:10:48.654Z,60.58
2023-03-30T13:13:23.941Z,60.13
2023-03-30T13:15:54.784Z,59.72
2023-03-30T13:18:35.910Z,59.42
2023-03-30T13:21:26.258Z,58.76
2023-03-30T13:24:22.176Z,59.02
2023-03-30T13:26:54.079Z,58.96
2023-03-30T13:29:24.026Z,58.57
2023-03-30T13:31:58.040Z,58.65
2023-03-30T13:34:58.581Z,58.64
2023-03-30T13:37:39.863Z,58.12
2023-03-30T13:40:39.501Z,58.35
2023-03-30T13:43:48.023Z,58.33
2023-03-30T13:46:26.838Z,57.97
2023-03-30T13:49:21.524Z,57.85
2023-03-30T13:51:49.244Z,57.55
2023-03-30T13:54:32.202Z,57.89
2023-03-30T13:57:11.931Z,58.27
2023-03-30T13:59:43.700Z,58.34
2023-03-30T14:02:16.933Z,59.68
2023-03-30T14:04:49.185Z,61.03
2023-03-30T14:07:18.943Z,61.39
2023-03-30T14:10:06.347Z,61.69
2023-03-30T14:12:39.843Z,61.39
2023-03-30T14:15:35.662Z,61.73
2023-03-30T14:18:04.679Z,61.85
2023-03-30T14:20:31.283Z,61.65
2023-03-30T14:23:00.487Z,61.50
2023-03-30T14:25:29.982Z,61.60
2023-03-30T14:28:01.809Z,61.19
2023-03-30T14:30:29.650Z,60.90
2023-03-30T14:33:05.899Z,61.10
2023-03-30T14:35:33.493Z,61.02
2023-03-30T14:38:13.725Z,60.19
2023-03-30T14:40:43.936Z,60.03
2023-03-30T14:43:27.577Z,59.85
2023-03-30T14:45:58.495Z,59.93
2023-03-30T14:48:38.147Z,59.79
2023-03-30T14:51:20.514Z,59.64
2023-03-30T14:53:48.088Z,59.30
2023-03-30T14:56:17.360Z,59.16
2023-03-30T14:58:47.528Z,59.43
2023-03-30T15:01:17.973Z,59.56
2023-03-30T15:03:48.340Z,59.22
2023-03-30T15:06:22.591Z,60.42
2023-03-30T15:08:50.740Z,62.21
2023-03-30T15:11:26.300Z,62.79
2023-03-30T15:13:59.076Z,62.95
2023-03-30T15:16:31.549Z,62.75
2023-03-30T15:19:11.757Z,62.88
2023-03-30T15:21:41.383Z,62.90
2023-03-30T15:24:17.233Z,63.06
2023-03-30T15:26:48.407Z,63.75
2023-03-30T15:29:18.304Z,62.97
2023-03-30T15:31:58.884Z,62.45
2023-03-30T15:34:28.012Z,62.63
2023-03-30T15:36:57.891Z,62.21
2023-03-30T15:39:33.572Z,62.00
2023-03-30T15:42:04.507Z,61.64
2023-03-30T15:44:41.275Z,61.62
2023-03-30T15:47:18.049Z,61.86
2023-03-30T15:49:50.765Z,61.79
2023-03-30T15:52:26.157Z,62.06
2023-03-30T15:54:56.220Z,62.27
2023-03-30T15:57:28.096Z,62.32
2023-03-30T16:00:01.570Z,62.47
2023-03-30T16:02:31.300Z,62.46
2023-03-30T16:05:00.630Z,62.42
2023-03-30T16:07:33.234Z,61.92
2023-03-30T16:09:59.865Z,62.12
2023-03-30T16:12:29.719Z,62.11
2023-03-30T16:14:56.795Z,62.45
2023-03-30T16:17:23.721Z,62.37
2023-03-30T16:19:50.369Z,62.02
2023-03-30T16:22:16.986Z,62.26
2023-03-30T16:24:43.682Z,62.10
2023-03-30T16:27:12.022Z,62.14
2023-03-30T16:29:38.964Z,62.40
2023-03-30T16:32:05.962Z,62.75
2023-03-30T16:34:32.758Z,63.04
2023-03-30T16:36:59.417Z,63.47
2023-03-30T16:39:28.950Z,63.59
2023-03-30T16:41:58.886Z,63.75
2023-03-30T16:44:25.670Z,63.61
2023-03-30T16:46:53.055Z,63.58
2023-03-30T16:49:22.336Z,63.66
2023-03-30T16:51:49.529Z,64.00
2023-03-30T16:54:29.484Z,63.85
2023-03-30T16:56:59.073Z,64.11
2023-03-30T16:59:30.789Z,64.18
2023-03-30T17:01:57.760Z,64.21
2023-03-30T17:04:24.429Z,64.47
2023-03-30T17:06:51.142Z,64.79
2023-03-30T17:09:19.700Z,65.03
2023-03-30T17:11:50.795Z,65.57
2023-03-30T17:14:18.120Z,66.31
2023-03-30T17:16:49.529Z,66.65
2023-03-30T17:19:16.488Z,66.35
2023-03-30T17:21:43.649Z,66.36
2023-03-30T17:24:15.143Z,66.84
2023-03-30T17:26:42.162Z,66.71
2023-03-30T17:29:09.801Z,66.73
2023-03-30T17:31:39.330Z,66.77
2023-03-30T17:34:08.478Z,67.14
2023-03-30T17:36:35.183Z,66.72
2023-03-30T17:39:05.194Z,66.77
2023-03-30T17:41:35.296Z,67.19
2023-03-30T17:44:09.072Z,67.52
2023-03-30T17:46:36.074Z,67.63
2023-03-30T17:49:08.249Z,67.86
2023-03-30T17:51:34.807Z,67.84
2023-03-30T17:54:01.397Z,68.23
2023-03-30T17:56:28.227Z,68.28
2023-03-30T17:58:54.785Z,68.07
2023-03-30T18:01:23.928Z,68.46
2023-03-30T18:03:50.863Z,68.49
2023-03-30T18:06:17.669Z,68.41
2023-03-30T18:08:46.806Z,68.67
2023-03-30T18:11:13.465Z,68.51
2023-03-30T18:13:40.031Z,68.46
2023-03-30T18:16:06.986Z,68.38
2023-03-30T18:18:33.703Z,68.16
2023-03-30T18:21:03.130Z,68.20
2023-03-30T18:23:31.677Z,68.24
2023-03-30T18:25:58.309Z,68.23
2023-03-30T18:28:26.697Z,68.41
2023-03-30T18:30:57.375Z,68.28
2023-03-30T18:33:27.514Z,68.63
2023-03-30T18:35:56.850Z,68.18
2023-03-30T18:38:25.270Z,68.50
2023-03-30T18:40:58.087Z,68.70
2023-03-30T18:43:26.655Z,68.75
2023-03-30T18:45:57.938Z,68.54
2023-03-30T18:48:27.682Z,68.70
2023-03-30T18:50:55.070Z,68.49
2023-03-30T18:53:27.071Z,68.71
2023-03-30T18:56:01.879Z,68.48
2023-03-30T18:58:30.533Z,68.86
2023-03-30T19:01:00.935Z,68.54
2023-03-30T19:03:28.937Z,68.73
2023-03-30T19:05:58.434Z,68.93
2023-03-30T19:08:26.166Z,68.99
2023-03-30T19:10:57.562Z,68.94
2023-03-30T19:13:27.426Z,68.90
2023-03-30T19:15:58.076Z,68.92
2023-03-30T19:18:27.168Z,69.16
2023-03-30T19:20:59.144Z,68.99
2023-03-30T19:23:25.829Z,69.24
2023-03-30T19:25:53.222Z,69.32
2023-03-30T19:28:19.895Z,68.50
2023-03-30T19:30:51.394Z,69.06
2023-03-30T19:33:19.861Z,68.94
2023-03-30T19:35:46.726Z,68.96
2023-03-30T19:38:15.532Z,68.35
2023-03-30T19:40:42.584Z,69.02
2023-03-30T19:43:09.815Z,69.23
2023-03-30T19:45:36.744Z,69.32
2023-03-30T19:48:04.134Z,69.77
2023-03-30T19:50:31.755Z,70.48
2023-03-30T19:52:58.989Z,70.71
2023-03-30T19:55:25.850Z,71.46
2023-03-30T19:57:52.464Z,71.90
2023-03-30T20:00:20.510Z,72.40
2023-03-30T20:02:53.158Z,72.77
2023-03-30T20:05:21.534Z,72.86
2023-03-30T20:07:48.892Z,72.70
2023-03-30T20:10:22.085Z,74.07
2023-03-30T20:12:49.858Z,74.02
2023-03-30T20:15:17.865Z,73.89
2023-03-30T20:17:47.389Z,74.10
2023-03-30T20:20:17.121Z,74.59
2023-03-30T20:22:47.067Z,74.98
2023-03-30T20:25:16.805Z,75.08
2023-03-30T20:27:43.395Z,75.58
2023-03-30T20:30:11.684Z,75.80
2023-03-30T20:32:38.472Z,75.80
2023-03-30T20:35:09.269Z,76.05
2023-03-30T20:37:35.969Z,76.04
2023-03-30T20:40:09.746Z,76.33
2023-03-30T20:42:40.000Z,76.71
2023-03-30T20:45:08.398Z,76.99
2023-03-30T20:47:35.406Z,77.06
2023-03-30T20:50:01.998Z,77.65
2023-03-30T20:52:29.333Z,77.81
2023-03-30T20:54:56.372Z,77.98
2023-03-30T20:57:24.151Z,78.40
2023-03-30T20:59:53.179Z,78.56
2023-03-30T21:02:20.505Z,78.86
2023-03-30T21:04:47.591Z,78.98
2023-03-30T21:07:16.387Z,79.33
2023-03-30T21:09:43.139Z,79.42
2023-03-30T21:12:10.464Z,79.69
2023-03-30T21:14:37.232Z,79.65
2023-03-30T21:17:04.673Z,79.96
2023-03-30T21:19:31.881Z,80.15
2023-03-30T21:22:00.398Z,80.50
2023-03-30T21:24:27.810Z,80.54
2023-03-30T21:26:54.776Z,80.59
2023-03-30T21:29:22.099Z,80.23
2023-03-30T21:31:49.537Z,80.82
2023-03-30T21:34:18.581Z,81.08
2023-03-30T21:36:45.892Z,81.27
2023-03-30T21:39:12.882Z,81.09
2023-03-30T21:41:39.753Z,81.31
2023-03-30T21:44:06.641Z,81.57
2023-03-30T21:46:33.538Z,81.65
2023-03-30T21:49:03.048Z,81.83
2023-03-30T21:51:31.677Z,82.20
2023-03-30T21:53:58.934Z,81.98
2023-03-30T21:56:30.363Z,82.31
2023-03-30T21:58:58.096Z,82.34
2023-03-30T22:01:27.267Z,82.49
2023-03-30T22:03:55.648Z,82.44
2023-03-30T22:06:27.590Z,82.56
2023-03-30T22:08:54.330Z,82.95
2023-03-30T22:11:23.807Z,83.29
2023-03-30T22:13:52.180Z,83.06
2023-03-30T22:16:28.495Z,83.16
2023-03-30T22:18:58.087Z,83.25
2023-03-30T22:21:32.270Z,83.61
2023-03-30T22:24:02.910Z,83.59
2023-03-30T22:26:29.708Z,83.51
2023-03-30T22:28:57.758Z,83.79
2023-03-30T22:31:24.556Z,83.81
2023-03-30T22:33:53.417Z,83.74
2023-03-30T22:36:25.464Z,83.85
2023-03-30T22:38:52.679Z,83.57
2023-03-30T22:41:24.800Z,83.42
2023-03-30T22:43:56.278Z,83.48
2023-03-30T22:46:24.535Z,83.49
2023-03-30T22:48:55.975Z,83.54
2023-03-30T22:51:26.549Z,83.29
2023-03-30T22:54:00.274Z,83.35
2023-03-30T22:56:28.954Z,83.32
2023-03-30T22:58:56.060Z,83.92
2023-03-30T23:01:26.071Z,83.99
2023-03-30T23:03:55.511Z,84.16
2023-03-30T23:06:24.704Z,84.04
2023-03-30T23:08:52.833Z,84.22
2023-03-30T23:11:21.705Z,84.02
2023-03-30T23:13:49.094Z,84.01
2023-03-30T23:16:16.022Z,84.06
2023-03-30T23:18:42.640Z,84.32
2023-03-30T23:21:11.264Z,84.43
2023-03-30T23:23:39.014Z,84.47
2023-03-30T23:26:09.980Z,84.89
2023-03-30T23:28:39.081Z,84.58
2023-03-30T23:31:16.694Z,84.74
2023-03-30T23:33:43.728Z,84.57
2023-03-30T23:36:16.995Z,84.58
2023-03-30T23:38:46.635Z,84.68
2023-03-30T23:41:15.218Z,84.80
2023-03-30T23:43:41.936Z,84.64
2023-03-30T23:46:09.900Z,84.45
2023-03-30T23:48:39.231Z,84.56
2023-03-30T23:51:08.750Z,84.81
2023-03-30T23:53:40.209Z,84.73
2023-03-30T23:56:17.731Z,84.87
2023-03-30T23:58:44.915Z,84.85
